sensor_id;sensor_type;location;lat;lon;timestamp;P1;durP1;ratioP1;P2;durP2;ratioP2
21822;SDS011;11074;48.596;9.238;2022-12-18T00:02:04;57.33;;;23.80;;
21822;SDS011;11074;48.596;9.238;2022-12-18T00:04:30;55.20;;;22.50;;
21822;SDS011;11074;48.596;9.238;2022-12-18T00:06:55;60.88;;;23.67;;
21822;SDS011;11074;48.596;9.238;2022-12-18T00:09:21;56.97;;;23.63;;
21822;SDS011;11074;48.596;9.238;2022-12-18T00:11:47;59.25;;;24.67;;
21822;SDS011;11074;48.596;9.238;2022-12-18T00:14:13;62.55;;;26.48;;
21822;SDS011;11074;48.596;9.238;2022-12-18T00:16:39;66.40;;;26.48;;
21822;SDS011;11074;48.596;9.238;2022-12-18T00:19:09;61.50;;;24.80;;
21822;SDS011;11074;48.596;9.238;2022-12-18T00:21:36;59.58;;;22.98;;
21822;SDS011;11074;48.596;9.238;2022-12-18T00:24:02;56.50;;;22.77;;
21822;SDS011;11074;48.596;9.238;2022-12-18T00:26:29;58.05;;;23.55;;
21822;SDS011;11074;48.596;9.238;2022-12-18T00:29:00;54.22;;;23.48;;
21822;SDS011;11074;48.596;9.238;2022-12-18T00:31:33;56.72;;;23.55;;
21822;SDS011;11074;48.596;9.238;2022-12-18T00:34:00;60.90;;;25.35;;
21822;SDS011;11074;48.596;9.238;2022-12-18T00:36:27;57.08;;;23.23;;
21822;SDS011;11074;48.596;9.238;2022-12-18T00:38:57;60.38;;;24.25;;
21822;SDS011;11074;48.596;9.238;2022-12-18T00:41:25;57.60;;;23.30;;
21822;SDS011;11074;48.596;9.238;2022-12-18T00:44:11;57.67;;;23.27;;
21822;SDS011;11074;48.596;9.238;2022-12-18T00:46:40;52.63;;;20.65;;
21822;SDS011;11074;48.596;9.238;2022-12-18T00:49:06;57.67;;;22.45;;
21822;SDS011;11074;48.596;9.238;2022-12-18T00:51:33;50.78;;;21.90;;
21822;SDS011;11074;48.596;9.238;2022-12-18T00:53:58;50.78;;;21.27;;
21822;SDS011;11074;48.596;9.238;2022-12-18T00:56:24;55.25;;;21.40;;
21822;SDS011;11074;48.596;9.238;2022-12-18T00:58:50;57.38;;;22.42;;
21822;SDS011;11074;48.596;9.238;2022-12-18T01:01:16;48.25;;;20.13;;
21822;SDS011;11074;48.596;9.238;2022-12-18T01:03:42;56.63;;;21.42;;
21822;SDS011;11074;48.596;9.238;2022-12-18T01:06:10;53.65;;;21.73;;
21822;SDS011;11074;48.596;9.238;2022-12-18T01:08:38;48.78;;;20.15;;
21822;SDS011;11074;48.596;9.238;2022-12-18T01:11:11;46.20;;;19.58;;
21822;SDS011;11074;48.596;9.238;2022-12-18T01:13:40;51.67;;;20.33;;
21822;SDS011;11074;48.596;9.238;2022-12-18T01:16:07;52.95;;;20.45;;
21822;SDS011;11074;48.596;9.238;2022-12-18T01:18:33;49.75;;;19.95;;
21822;SDS011;11074;48.596;9.238;2022-12-18T01:21:00;53.78;;;20.13;;
21822;SDS011;11074;48.596;9.238;2022-12-18T01:23:30;46.63;;;20.33;;
21822;SDS011;11074;48.596;9.238;2022-12-18T01:25:55;47.78;;;20.50;;
21822;SDS011;11074;48.596;9.238;2022-12-18T01:28:21;46.00;;;20.20;;
21822;SDS011;11074;48.596;9.238;2022-12-18T01:30:46;52.00;;;20.65;;
21822;SDS011;11074;48.596;9.238;2022-12-18T01:33:12;49.20;;;20.50;;
21822;SDS011;11074;48.596;9.238;2022-12-18T01:35:41;49.97;;;19.63;;
21822;SDS011;11074;48.596;9.238;2022-12-18T01:38:07;47.75;;;19.40;;
21822;SDS011;11074;48.596;9.238;2022-12-18T01:40:34;51.13;;;20.45;;
21822;SDS011;11074;48.596;9.238;2022-12-18T01:43:00;47.22;;;19.08;;
21822;SDS011;11074;48.596;9.238;2022-12-18T01:45:27;45.72;;;18.73;;
21822;SDS011;11074;48.596;9.238;2022-12-18T01:53:06;48.28;;;19.83;;
21822;SDS011;11074;48.596;9.238;2022-12-18T01:55:55;40.25;;;17.30;;
21822;SDS011;11074;48.596;9.238;2022-12-18T01:58:45;33.60;;;13.50;;
21822;SDS011;11074;48.596;9.238;2022-12-18T02:01:31;45.80;;;18.58;;
21822;SDS011;11074;48.596;9.238;2022-12-18T02:07:37;49.40;;;18.52;;
21822;SDS011;11074;48.596;9.238;2022-12-18T02:10:00;48.92;;;18.67;;
21822;SDS011;11074;48.596;9.238;2022-12-18T02:13:00;48.05;;;18.20;;
21822;SDS011;11074;48.596;9.238;2022-12-18T02:18:28;37.78;;;16.98;;
21822;SDS011;11074;48.596;9.238;2022-12-18T02:21:11;39.75;;;17.60;;
21822;SDS011;11074;48.596;9.238;2022-12-18T02:24:07;42.35;;;16.75;;
21822;SDS011;11074;48.596;9.238;2022-12-18T02:27:01;38.28;;;16.13;;
21822;SDS011;11074;48.596;9.238;2022-12-18T02:29:34;37.25;;;16.55;;
21822;SDS011;11074;48.596;9.238;2022-12-18T02:32:15;38.83;;;17.42;;
21822;SDS011;11074;48.596;9.238;2022-12-18T02:34:48;45.28;;;18.00;;
21822;SDS011;11074;48.596;9.238;2022-12-18T02:37:17;40.55;;;17.88;;
21822;SDS011;11074;48.596;9.238;2022-12-18T02:39:46;40.70;;;17.17;;
21822;SDS011;11074;48.596;9.238;2022-12-18T02:42:14;35.22;;;17.88;;
21822;SDS011;11074;48.596;9.238;2022-12-18T02:44:46;34.25;;;16.98;;
21822;SDS011;11074;48.596;9.238;2022-12-18T02:47:15;37.15;;;17.73;;
21822;SDS011;11074;48.596;9.238;2022-12-18T02:49:58;36.35;;;17.45;;
21822;SDS011;11074;48.596;9.238;2022-12-18T02:53:18;41.00;;;17.33;;
21822;SDS011;11074;48.596;9.238;2022-12-18T03:01:28;38.45;;;16.77;;
21822;SDS011;11074;48.596;9.238;2022-12-18T03:07:15;41.17;;;17.50;;
21822;SDS011;11074;48.596;9.238;2022-12-18T03:09:52;34.15;;;16.60;;
21822;SDS011;11074;48.596;9.238;2022-12-18T03:12:23;40.45;;;16.60;;
21822;SDS011;11074;48.596;9.238;2022-12-18T03:15:04;37.75;;;16.95;;
21822;SDS011;11074;48.596;9.238;2022-12-18T03:17:42;35.85;;;15.88;;
21822;SDS011;11074;48.596;9.238;2022-12-18T03:20:15;35.38;;;17.38;;
21822;SDS011;11074;48.596;9.238;2022-12-18T03:22:46;34.22;;;15.98;;
21822;SDS011;11074;48.596;9.238;2022-12-18T03:25:22;36.65;;;17.90;;
21822;SDS011;11074;48.596;9.238;2022-12-18T03:27:53;38.72;;;18.35;;
21822;SDS011;11074;48.596;9.238;2022-12-18T03:30:23;35.97;;;16.73;;
21822;SDS011;11074;48.596;9.238;2022-12-18T03:33:15;37.10;;;16.45;;
21822;SDS011;11074;48.596;9.238;2022-12-18T03:35:49;39.60;;;16.25;;
21822;SDS011;11074;48.596;9.238;2022-12-18T03:38:15;35.35;;;15.98;;
21822;SDS011;11074;48.596;9.238;2022-12-18T03:40:59;37.88;;;15.45;;
21822;SDS011;11074;48.596;9.238;2022-12-18T03:46:40;36.20;;;15.60;;
21822;SDS011;11074;48.596;9.238;2022-12-18T03:49:25;34.15;;;14.98;;
21822;SDS011;11074;48.596;9.238;2022-12-18T03:52:35;35.25;;;15.52;;
21822;SDS011;11074;48.596;9.238;2022-12-18T03:55:18;36.70;;;16.02;;
21822;SDS011;11074;48.596;9.238;2022-12-18T03:57:47;35.35;;;14.88;;
21822;SDS011;11074;48.596;9.238;2022-12-18T04:00:17;33.33;;;15.13;;
21822;SDS011;11074;48.596;9.238;2022-12-18T04:02:51;35.08;;;15.55;;
21822;SDS011;11074;48.596;9.238;2022-12-18T04:05:20;36.65;;;15.52;;
21822;SDS011;11074;48.596;9.238;2022-12-18T04:07:50;36.28;;;15.70;;
21822;SDS011;11074;48.596;9.238;2022-12-18T04:10:18;31.23;;;14.93;;
21822;SDS011;11074;48.596;9.238;2022-12-18T04:12:44;33.30;;;14.85;;
21822;SDS011;11074;48.596;9.238;2022-12-18T04:15:10;35.35;;;14.60;;
21822;SDS011;11074;48.596;9.238;2022-12-18T04:17:38;33.47;;;14.68;;
21822;SDS011;11074;48.596;9.238;2022-12-18T04:20:08;33.42;;;15.60;;
21822;SDS011;11074;48.596;9.238;2022-12-18T04:22:34;38.15;;;15.80;;
21822;SDS011;11074;48.596;9.238;2022-12-18T04:25:00;34.10;;;15.43;;
21822;SDS011;11074;48.596;9.238;2022-12-18T04:27:26;37.72;;;14.80;;
21822;SDS011;11074;48.596;9.238;2022-12-18T04:29:51;35.60;;;15.18;;
21822;SDS011;11074;48.596;9.238;2022-12-18T04:32:17;36.33;;;15.27;;
21822;SDS011;11074;48.596;9.238;2022-12-18T04:34:43;33.13;;;14.45;;
21822;SDS011;11074;48.596;9.238;2022-12-18T04:37:08;35.60;;;15.13;;
21822;SDS011;11074;48.596;9.238;2022-12-18T04:39:34;36.33;;;15.10;;
21822;SDS011;11074;48.596;9.238;2022-12-18T04:42:00;34.88;;;15.73;;
21822;SDS011;11074;48.596;9.238;2022-12-18T04:44:26;32.15;;;14.38;;
21822;SDS011;11074;48.596;9.238;2022-12-18T04:46:52;33.47;;;14.88;;
21822;SDS011;11074;48.596;9.238;2022-12-18T04:49:17;35.20;;;14.93;;
21822;SDS011;11074;48.596;9.238;2022-12-18T04:51:43;37.08;;;15.50;;
21822;SDS011;11074;48.596;9.238;2022-12-18T04:54:09;38.22;;;16.13;;
21822;SDS011;11074;48.596;9.238;2022-12-18T04:56:34;36.30;;;15.88;;
21822;SDS011;11074;48.596;9.238;2022-12-18T04:59:00;38.25;;;15.40;;
21822;SDS011;11074;48.596;9.238;2022-12-18T05:01:26;36.38;;;16.42;;
21822;SDS011;11074;48.596;9.238;2022-12-18T05:03:51;34.70;;;15.63;;
21822;SDS011;11074;48.596;9.238;2022-12-18T05:06:17;35.35;;;15.48;;
21822;SDS011;11074;48.596;9.238;2022-12-18T05:08:43;38.15;;;15.48;;
21822;SDS011;11074;48.596;9.238;2022-12-18T05:11:10;37.03;;;15.82;;
21822;SDS011;11074;48.596;9.238;2022-12-18T05:13:41;37.63;;;15.38;;
21822;SDS011;11074;48.596;9.238;2022-12-18T05:16:09;37.47;;;15.20;;
21822;SDS011;11074;48.596;9.238;2022-12-18T05:18:35;35.78;;;14.45;;
21822;SDS011;11074;48.596;9.238;2022-12-18T05:21:02;38.40;;;15.02;;
21822;SDS011;11074;48.596;9.238;2022-12-18T05:23:28;32.58;;;14.90;;
21822;SDS011;11074;48.596;9.238;2022-12-18T05:25:55;37.40;;;15.10;;
21822;SDS011;11074;48.596;9.238;2022-12-18T05:28:25;33.20;;;13.70;;
21822;SDS011;11074;48.596;9.238;2022-12-18T05:30:53;40.90;;;15.10;;
21822;SDS011;11074;48.596;9.238;2022-12-18T05:33:22;40.75;;;16.45;;
21822;SDS011;11074;48.596;9.238;2022-12-18T05:35:51;33.33;;;15.50;;
21822;SDS011;11074;48.596;9.238;2022-12-18T05:38:19;37.15;;;15.35;;
21822;SDS011;11074;48.596;9.238;2022-12-18T05:40:51;43.95;;;15.45;;
21822;SDS011;11074;48.596;9.238;2022-12-18T05:43:18;33.40;;;15.43;;
21822;SDS011;11074;48.596;9.238;2022-12-18T05:45:46;39.08;;;16.52;;
21822;SDS011;11074;48.596;9.238;2022-12-18T05:48:13;34.30;;;15.10;;
21822;SDS011;11074;48.596;9.238;2022-12-18T05:50:40;35.92;;;15.27;;
21822;SDS011;11074;48.596;9.238;2022-12-18T05:53:08;34.78;;;15.43;;
21822;SDS011;11074;48.596;9.238;2022-12-18T05:55:35;43.17;;;17.42;;
21822;SDS011;11074;48.596;9.238;2022-12-18T05:58:03;35.90;;;16.02;;
21822;SDS011;11074;48.596;9.238;2022-12-18T06:00:32;38.72;;;15.90;;
21822;SDS011;11074;48.596;9.238;2022-12-18T06:03:00;37.55;;;15.13;;
21822;SDS011;11074;48.596;9.238;2022-12-18T06:05:26;43.08;;;19.90;;
21822;SDS011;11074;48.596;9.238;2022-12-18T06:07:52;46.40;;;21.48;;
21822;SDS011;11074;48.596;9.238;2022-12-18T06:10:18;39.47;;;19.33;;
21822;SDS011;11074;48.596;9.238;2022-12-18T06:12:44;40.25;;;18.27;;
21822;SDS011;11074;48.596;9.238;2022-12-18T06:15:10;47.53;;;21.80;;
21822;SDS011;11074;48.596;9.238;2022-12-18T06:17:36;67.20;;;30.73;;
21822;SDS011;11074;48.596;9.238;2022-12-18T06:20:03;51.13;;;24.10;;
21822;SDS011;11074;48.596;9.238;2022-12-18T06:22:31;44.33;;;20.67;;
21822;SDS011;11074;48.596;9.238;2022-12-18T06:24:57;37.80;;;17.73;;
21822;SDS011;11074;48.596;9.238;2022-12-18T06:27:24;42.45;;;16.67;;
21822;SDS011;11074;48.596;9.238;2022-12-18T06:29:50;34.42;;;15.93;;
21822;SDS011;11074;48.596;9.238;2022-12-18T06:32:15;42.58;;;16.85;;
21822;SDS011;11074;48.596;9.238;2022-12-18T06:34:41;38.80;;;14.68;;
21822;SDS011;11074;48.596;9.238;2022-12-18T06:37:07;35.00;;;14.63;;
21822;SDS011;11074;48.596;9.238;2022-12-18T06:39:33;38.13;;;15.45;;
21822;SDS011;11074;48.596;9.238;2022-12-18T06:41:58;34.88;;;15.32;;
21822;SDS011;11074;48.596;9.238;2022-12-18T06:44:24;35.08;;;15.35;;
21822;SDS011;11074;48.596;9.238;2022-12-18T06:46:50;35.25;;;15.48;;
21822;SDS011;11074;48.596;9.238;2022-12-18T06:49:15;38.00;;;16.25;;
21822;SDS011;11074;48.596;9.238;2022-12-18T06:51:41;35.85;;;15.60;;
21822;SDS011;11074;48.596;9.238;2022-12-18T06:54:07;35.90;;;15.90;;
21822;SDS011;11074;48.596;9.238;2022-12-18T06:56:33;37.85;;;16.45;;
21822;SDS011;11074;48.596;9.238;2022-12-18T06:58:59;39.00;;;15.52;;
21822;SDS011;11074;48.596;9.238;2022-12-18T07:01:25;38.58;;;15.52;;
21822;SDS011;11074;48.596;9.238;2022-12-18T07:03:52;33.67;;;14.93;;
21822;SDS011;11074;48.596;9.238;2022-12-18T07:06:20;34.78;;;14.65;;
21822;SDS011;11074;48.596;9.238;2022-12-18T07:08:49;38.20;;;15.75;;
21822;SDS011;11074;48.596;9.238;2022-12-18T07:11:17;33.72;;;14.15;;
21822;SDS011;11074;48.596;9.238;2022-12-18T07:13:43;34.40;;;14.50;;
21822;SDS011;11074;48.596;9.238;2022-12-18T07:16:11;39.55;;;15.98;;
21822;SDS011;11074;48.596;9.238;2022-12-18T07:18:42;36.03;;;14.73;;
21822;SDS011;11074;48.596;9.238;2022-12-18T07:21:10;39.85;;;15.20;;
21822;SDS011;11074;48.596;9.238;2022-12-18T07:23:40;35.47;;;14.23;;
21822;SDS011;11074;48.596;9.238;2022-12-18T07:26:07;34.40;;;14.88;;
21822;SDS011;11074;48.596;9.238;2022-12-18T07:28:39;41.28;;;16.42;;
21822;SDS011;11074;48.596;9.238;2022-12-18T07:31:07;35.42;;;14.90;;
21822;SDS011;11074;48.596;9.238;2022-12-18T07:33:52;40.80;;;15.63;;
21822;SDS011;11074;48.596;9.238;2022-12-18T07:36:18;35.72;;;14.93;;
21822;SDS011;11074;48.596;9.238;2022-12-18T07:38:46;38.58;;;15.85;;
21822;SDS011;11074;48.596;9.238;2022-12-18T07:41:13;34.70;;;14.70;;
21822;SDS011;11074;48.596;9.238;2022-12-18T07:43:39;32.95;;;14.38;;
21822;SDS011;11074;48.596;9.238;2022-12-18T07:46:06;35.35;;;15.00;;
21822;SDS011;11074;48.596;9.238;2022-12-18T07:48:33;41.10;;;15.63;;
21822;SDS011;11074;48.596;9.238;2022-12-18T07:50:59;37.38;;;15.60;;
21822;SDS011;11074;48.596;9.238;2022-12-18T07:53:31;38.50;;;15.63;;
21822;SDS011;11074;48.596;9.238;2022-12-18T07:55:58;39.92;;;16.40;;
21822;SDS011;11074;48.596;9.238;2022-12-18T07:58:28;44.20;;;17.92;;
21822;SDS011;11074;48.596;9.238;2022-12-18T08:01:01;54.03;;;23.10;;
21822;SDS011;11074;48.596;9.238;2022-12-18T08:03:36;45.75;;;18.60;;
21822;SDS011;11074;48.596;9.238;2022-12-18T08:06:05;42.15;;;17.92;;
21822;SDS011;11074;48.596;9.238;2022-12-18T08:08:34;36.45;;;16.70;;
21822;SDS011;11074;48.596;9.238;2022-12-18T08:11:01;40.40;;;17.08;;
21822;SDS011;11074;48.596;9.238;2022-12-18T08:13:27;39.97;;;17.33;;
21822;SDS011;11074;48.596;9.238;2022-12-18T08:16:00;44.47;;;18.05;;
21822;SDS011;11074;48.596;9.238;2022-12-18T08:18:31;49.65;;;19.45;;
21822;SDS011;11074;48.596;9.238;2022-12-18T08:23:40;46.75;;;20.05;;
21822;SDS011;11074;48.596;9.238;2022-12-18T08:26:07;43.42;;;19.27;;
21822;SDS011;11074;48.596;9.238;2022-12-18T08:28:34;44.63;;;18.92;;
21822;SDS011;11074;48.596;9.238;2022-12-18T08:31:00;39.60;;;17.52;;
21822;SDS011;11074;48.596;9.238;2022-12-18T08:33:26;43.75;;;17.92;;
21822;SDS011;11074;48.596;9.238;2022-12-18T08:35:52;45.92;;;18.17;;
21822;SDS011;11074;48.596;9.238;2022-12-18T08:38:18;41.20;;;18.13;;
21822;SDS011;11074;48.596;9.238;2022-12-18T08:40:43;44.17;;;18.65;;
21822;SDS011;11074;48.596;9.238;2022-12-18T08:43:10;38.05;;;17.30;;
21822;SDS011;11074;48.596;9.238;2022-12-18T08:45:55;45.72;;;19.35;;
21822;SDS011;11074;48.596;9.238;2022-12-18T08:48:21;48.17;;;19.98;;
21822;SDS011;11074;48.596;9.238;2022-12-18T08:50:53;44.63;;;18.77;;
21822;SDS011;11074;48.596;9.238;2022-12-18T08:53:21;46.03;;;18.27;;
21822;SDS011;11074;48.596;9.238;2022-12-18T08:55:46;45.67;;;18.83;;
21822;SDS011;11074;48.596;9.238;2022-12-18T08:58:12;50.35;;;19.63;;
21822;SDS011;11074;48.596;9.238;2022-12-18T09:00:37;48.75;;;19.33;;
21822;SDS011;11074;48.596;9.238;2022-12-18T09:03:03;43.92;;;18.75;;
21822;SDS011;11074;48.596;9.238;2022-12-18T09:05:29;44.03;;;18.10;;
21822;SDS011;11074;48.596;9.238;2022-12-18T09:07:55;49.60;;;19.88;;
21822;SDS011;11074;48.596;9.238;2022-12-18T09:10:21;44.03;;;17.95;;
21822;SDS011;11074;48.596;9.238;2022-12-18T09:12:47;41.38;;;18.60;;
21822;SDS011;11074;48.596;9.238;2022-12-18T09:15:12;50.33;;;21.20;;
21822;SDS011;11074;48.596;9.238;2022-12-18T09:17:38;41.75;;;18.35;;
21822;SDS011;11074;48.596;9.238;2022-12-18T09:20:04;43.30;;;18.73;;
21822;SDS011;11074;48.596;9.238;2022-12-18T09:22:30;44.55;;;19.63;;
21822;SDS011;11074;48.596;9.238;2022-12-18T09:24:56;45.65;;;21.35;;
21822;SDS011;11074;48.596;9.238;2022-12-18T09:27:21;48.03;;;20.27;;
21822;SDS011;11074;48.596;9.238;2022-12-18T09:29:47;46.83;;;19.67;;
21822;SDS011;11074;48.596;9.238;2022-12-18T09:32:13;48.00;;;19.85;;
21822;SDS011;11074;48.596;9.238;2022-12-18T09:34:39;45.75;;;19.58;;
21822;SDS011;11074;48.596;9.238;2022-12-18T09:37:05;46.88;;;20.50;;
21822;SDS011;11074;48.596;9.238;2022-12-18T09:39:30;50.28;;;21.55;;
21822;SDS011;11074;48.596;9.238;2022-12-18T09:41:57;47.15;;;20.00;;
21822;SDS011;11074;48.596;9.238;2022-12-18T09:44:27;48.60;;;19.58;;
21822;SDS011;11074;48.596;9.238;2022-12-18T09:50:02;43.33;;;19.45;;
21822;SDS011;11074;48.596;9.238;2022-12-18T09:52:53;48.40;;;20.58;;
21822;SDS011;11074;48.596;9.238;2022-12-18T09:55:32;47.07;;;21.63;;
21822;SDS011;11074;48.596;9.238;2022-12-18T09:58:47;49.28;;;20.77;;
21822;SDS011;11074;48.596;9.238;2022-12-18T10:01:01;49.63;;;22.17;;
21822;SDS011;11074;48.596;9.238;2022-12-18T10:03:27;49.90;;;22.73;;
21822;SDS011;11074;48.596;9.238;2022-12-18T10:11:36;55.00;;;23.52;;
21822;SDS011;11074;48.596;9.238;2022-12-18T10:14:36;52.97;;;23.15;;
21822;SDS011;11074;48.596;9.238;2022-12-18T10:17:40;52.80;;;23.15;;
21822;SDS011;11074;48.596;9.238;2022-12-18T10:20:45;51.70;;;23.15;;
21822;SDS011;11074;48.596;9.238;2022-12-18T10:23:20;55.35;;;23.00;;
21822;SDS011;11074;48.596;9.238;2022-12-18T10:26:25;52.85;;;23.58;;
21822;SDS011;11074;48.596;9.238;2022-12-18T10:28:50;56.72;;;25.67;;
21822;SDS011;11074;48.596;9.238;2022-12-18T10:31:19;57.40;;;23.33;;
21822;SDS011;11074;48.596;9.238;2022-12-18T10:33:48;55.63;;;23.85;;
21822;SDS011;11074;48.596;9.238;2022-12-18T10:36:14;56.47;;;23.67;;
21822;SDS011;11074;48.596;9.238;2022-12-18T10:38:40;53.33;;;23.08;;
21822;SDS011;11074;48.596;9.238;2022-12-18T10:41:27;50.30;;;23.05;;
21822;SDS011;11074;48.596;9.238;2022-12-18T10:44:25;49.40;;;22.48;;
21822;SDS011;11074;48.596;9.238;2022-12-18T10:46:48;48.00;;;22.45;;
21822;SDS011;11074;48.596;9.238;2022-12-18T10:49:27;58.05;;;22.60;;
21822;SDS011;11074;48.596;9.238;2022-12-18T10:52:04;50.83;;;22.33;;
21822;SDS011;11074;48.596;9.238;2022-12-18T10:54:46;58.83;;;24.73;;
21822;SDS011;11074;48.596;9.238;2022-12-18T11:02:35;55.35;;;25.38;;
21822;SDS011;11074;48.596;9.238;2022-12-18T11:05:03;54.13;;;24.48;;
21822;SDS011;11074;48.596;9.238;2022-12-18T11:07:56;54.67;;;24.73;;
21822;SDS011;11074;48.596;9.238;2022-12-18T11:10:31;57.80;;;24.80;;
21822;SDS011;11074;48.596;9.238;2022-12-18T11:13:18;58.90;;;26.40;;
21822;SDS011;11074;48.596;9.238;2022-12-18T11:15:48;58.63;;;25.13;;
21822;SDS011;11074;48.596;9.238;2022-12-18T11:18:26;65.00;;;26.23;;
21822;SDS011;11074;48.596;9.238;2022-12-18T11:21:08;63.22;;;27.17;;
21822;SDS011;11074;48.596;9.238;2022-12-18T11:23:37;57.67;;;25.40;;
21822;SDS011;11074;48.596;9.238;2022-12-18T11:26:18;59.38;;;26.67;;
21822;SDS011;11074;48.596;9.238;2022-12-18T11:28:46;56.10;;;25.52;;
21822;SDS011;11074;48.596;9.238;2022-12-18T11:31:33;63.60;;;27.38;;
21822;SDS011;11074;48.596;9.238;2022-12-18T11:36:29;59.88;;;26.40;;
21822;SDS011;11074;48.596;9.238;2022-12-18T11:39:05;61.03;;;27.42;;
21822;SDS011;11074;48.596;9.238;2022-12-18T11:42:17;54.53;;;25.52;;
21822;SDS011;11074;48.596;9.238;2022-12-18T11:44:44;81.07;;;32.92;;
21822;SDS011;11074;48.596;9.238;2022-12-18T11:53:09;127.93;;;49.83;;
21822;SDS011;11074;48.596;9.238;2022-12-18T12:07:33;80.43;;;35.58;;
21822;SDS011;11074;48.596;9.238;2022-12-18T12:10:08;71.97;;;31.58;;
21822;SDS011;11074;48.596;9.238;2022-12-18T12:21:27;60.72;;;29.50;;
21822;SDS011;11074;48.596;9.238;2022-12-18T12:26:55;66.40;;;31.17;;
21822;SDS011;11074;48.596;9.238;2022-12-18T12:38:11;65.97;;;31.38;;
21822;SDS011;11074;48.596;9.238;2022-12-18T12:40:54;65.00;;;30.67;;
21822;SDS011;11074;48.596;9.238;2022-12-18T12:46:10;66.15;;;29.98;;
21822;SDS011;11074;48.596;9.238;2022-12-18T12:48:56;59.65;;;28.42;;
21822;SDS011;11074;48.596;9.238;2022-12-18T12:51:33;61.75;;;30.33;;
21822;SDS011;11074;48.596;9.238;2022-12-18T12:54:01;61.95;;;29.70;;
21822;SDS011;11074;48.596;9.238;2022-12-18T12:56:42;63.08;;;30.00;;
21822;SDS011;11074;48.596;9.238;2022-12-18T12:59:48;64.10;;;28.85;;
21822;SDS011;11074;48.596;9.238;2022-12-18T13:02:33;63.08;;;29.45;;
21822;SDS011;11074;48.596;9.238;2022-12-18T13:08:24;63.78;;;29.92;;
21822;SDS011;11074;48.596;9.238;2022-12-18T13:10:57;66.53;;;31.13;;
21822;SDS011;11074;48.596;9.238;2022-12-18T13:13:47;67.35;;;32.63;;
21822;SDS011;11074;48.596;9.238;2022-12-18T13:16:20;72.18;;;32.33;;
21822;SDS011;11074;48.596;9.238;2022-12-18T13:18:53;76.13;;;35.92;;
21822;SDS011;11074;48.596;9.238;2022-12-18T13:21:30;66.55;;;33.42;;
21822;SDS011;11074;48.596;9.238;2022-12-18T13:26:56;66.72;;;32.30;;
21822;SDS011;11074;48.596;9.238;2022-12-18T13:32:19;64.20;;;29.92;;
21822;SDS011;11074;48.596;9.238;2022-12-18T13:37:52;60.47;;;30.70;;
21822;SDS011;11074;48.596;9.238;2022-12-18T13:40:42;69.47;;;32.67;;
21822;SDS011;11074;48.596;9.238;2022-12-18T13:45:49;68.80;;;32.75;;
21822;SDS011;11074;48.596;9.238;2022-12-18T13:48:47;69.40;;;31.35;;
21822;SDS011;11074;48.596;9.238;2022-12-18T13:51:21;65.07;;;33.58;;
21822;SDS011;11074;48.596;9.238;2022-12-18T13:53:50;67.20;;;32.70;;
21822;SDS011;11074;48.596;9.238;2022-12-18T13:56:24;65.43;;;33.17;;
21822;SDS011;11074;48.596;9.238;2022-12-18T14:01:43;63.28;;;29.15;;
21822;SDS011;11074;48.596;9.238;2022-12-18T14:06:56;66.68;;;31.73;;
21822;SDS011;11074;48.596;9.238;2022-12-18T14:09:28;61.83;;;30.85;;
21822;SDS011;11074;48.596;9.238;2022-12-18T14:12:00;70.15;;;30.92;;
21822;SDS011;11074;48.596;9.238;2022-12-18T14:14:45;62.63;;;30.15;;
21822;SDS011;11074;48.596;9.238;2022-12-18T14:17:15;65.50;;;32.17;;
21822;SDS011;11074;48.596;9.238;2022-12-18T14:19:43;65.50;;;32.63;;
21822;SDS011;11074;48.596;9.238;2022-12-18T14:22:16;62.40;;;30.38;;
21822;SDS011;11074;48.596;9.238;2022-12-18T14:25:05;64.80;;;31.27;;
21822;SDS011;11074;48.596;9.238;2022-12-18T14:27:37;45.90;;;23.17;;
21822;SDS011;11074;48.596;9.238;2022-12-18T14:33:01;69.78;;;33.65;;
21822;SDS011;11074;48.596;9.238;2022-12-18T14:35:42;73.55;;;33.10;;
21822;SDS011;11074;48.596;9.238;2022-12-18T14:41:06;74.43;;;34.22;;
21822;SDS011;11074;48.596;9.238;2022-12-18T14:43:39;67.20;;;33.25;;
21822;SDS011;11074;48.596;9.238;2022-12-18T14:48:57;73.18;;;33.33;;
21822;SDS011;11074;48.596;9.238;2022-12-18T14:51:28;72.82;;;33.67;;
21822;SDS011;11074;48.596;9.238;2022-12-18T14:54:00;60.53;;;29.73;;
21822;SDS011;11074;48.596;9.238;2022-12-18T14:56:46;57.80;;;29.48;;
21822;SDS011;11074;48.596;9.238;2022-12-18T14:59:27;59.25;;;28.90;;
21822;SDS011;11074;48.596;9.238;2022-12-18T15:01:57;56.38;;;27.67;;
21822;SDS011;11074;48.596;9.238;2022-12-18T15:04:30;60.67;;;29.73;;
21822;SDS011;11074;48.596;9.238;2022-12-18T15:07:16;62.28;;;30.10;;
21822;SDS011;11074;48.596;9.238;2022-12-18T15:12:48;54.67;;;24.23;;
21822;SDS011;11074;48.596;9.238;2022-12-18T15:15:58;54.17;;;24.77;;
21822;SDS011;11074;48.596;9.238;2022-12-18T15:20:40;52.47;;;23.75;;
21822;SDS011;11074;48.596;9.238;2022-12-18T15:23:23;58.03;;;23.30;;
21822;SDS011;11074;48.596;9.238;2022-12-18T15:26:03;53.85;;;22.45;;
21822;SDS011;11074;48.596;9.238;2022-12-18T15:28:45;45.60;;;21.20;;
21822;SDS011;11074;48.596;9.238;2022-12-18T15:36:19;49.55;;;22.65;;
21822;SDS011;11074;48.596;9.238;2022-12-18T15:38:49;42.58;;;20.95;;
21822;SDS011;11074;48.596;9.238;2022-12-18T15:41:17;41.28;;;19.30;;
21822;SDS011;11074;48.596;9.238;2022-12-18T15:43:46;45.85;;;20.48;;
21822;SDS011;11074;48.596;9.238;2022-12-18T15:46:18;45.40;;;20.02;;
21822;SDS011;11074;48.596;9.238;2022-12-18T15:48:48;44.70;;;21.10;;
21822;SDS011;11074;48.596;9.238;2022-12-18T15:51:21;45.67;;;20.77;;
21822;SDS011;11074;48.596;9.238;2022-12-18T15:53:54;51.38;;;22.73;;
21822;SDS011;11074;48.596;9.238;2022-12-18T15:56:23;47.53;;;21.20;;
21822;SDS011;11074;48.596;9.238;2022-12-18T15:59:09;46.03;;;20.23;;
21822;SDS011;11074;48.596;9.238;2022-12-18T16:01:40;46.17;;;20.98;;
21822;SDS011;11074;48.596;9.238;2022-12-18T16:04:10;45.17;;;21.27;;
21822;SDS011;11074;48.596;9.238;2022-12-18T16:06:38;48.97;;;21.92;;
21822;SDS011;11074;48.596;9.238;2022-12-18T16:09:05;49.97;;;21.33;;
21822;SDS011;11074;48.596;9.238;2022-12-18T16:11:31;45.90;;;21.42;;
21822;SDS011;11074;48.596;9.238;2022-12-18T16:14:24;42.75;;;19.33;;
21822;SDS011;11074;48.596;9.238;2022-12-18T16:17:01;48.10;;;20.95;;
21822;SDS011;11074;48.596;9.238;2022-12-18T16:19:33;45.97;;;20.42;;
21822;SDS011;11074;48.596;9.238;2022-12-18T16:21:59;45.47;;;20.83;;
21822;SDS011;11074;48.596;9.238;2022-12-18T16:24:26;46.35;;;20.70;;
21822;SDS011;11074;48.596;9.238;2022-12-18T16:26:55;43.78;;;20.38;;
21822;SDS011;11074;48.596;9.238;2022-12-18T16:29:24;45.53;;;21.63;;
21822;SDS011;11074;48.596;9.238;2022-12-18T16:32:01;44.05;;;21.55;;
21822;SDS011;11074;48.596;9.238;2022-12-18T16:34:31;47.00;;;22.50;;
21822;SDS011;11074;48.596;9.238;2022-12-18T16:37:05;57.05;;;27.02;;
21822;SDS011;11074;48.596;9.238;2022-12-18T16:39:34;52.38;;;24.52;;
21822;SDS011;11074;48.596;9.238;2022-12-18T16:42:02;59.10;;;27.42;;
21822;SDS011;11074;48.596;9.238;2022-12-18T16:44:44;54.03;;;25.02;;
21822;SDS011;11074;48.596;9.238;2022-12-18T16:47:11;50.47;;;24.83;;
21822;SDS011;11074;48.596;9.238;2022-12-18T16:49:38;50.20;;;23.35;;
21822;SDS011;11074;48.596;9.238;2022-12-18T16:52:04;51.65;;;23.17;;